TAF and METAR

Decoding for American and Canadian METARs and TAFs is not fully implemented.

Could not understand the following METAR

CYIO 250000Z AUTO 24009KT 9SM FEW032 OVC060 03/01 A2984 RMK SLP110

TAF for Pond Inlet Airport

TAF CYIO 241840Z 2419/2507 21008KT P6SM FEW020 BKN050 TEMPO 2419/2503 P6SM -RA BKN020 OVC050 FM250300 19007KT P6SM SCT040 RMK NXT FCST BY 250100Z
Report created 24. jun 20:40

between 24. jun 21:00 - 25. jun 09:00

wind 8 knots from SSW (210°)